Time;durP1;ratioP1;P1;durP2;ratioP2;P2;SDS_P1;SDS_P2;PMS_P1;PMS_P2;Temp;Humidity;BMP_temperature;BMP_pressure;BME280_temperature;BME280_humidity;BME280_pressure;Samples;Min_cycle;Max_cycle;Signal;HPM_P1;HPM_P2
2023/11/16 00:02:21;;;;;;;;;;;17.40;64.90;;;;;;5044522;28;19909;-67
2023/11/16 00:04:48;;;;;;;;;;;17.40;64.90;;;;;;5042948;28;20299;-68
2023/11/16 00:07:14;;;;;;;;;;;17.40;64.90;;;;;;5042602;28;19917;-68
2023/11/16 00:09:39;;;;;;;;;;;17.40;64.90;;;;;;5043670;28;19917;-67
2023/11/16 00:12:06;;;;;;;;;;;17.40;64.90;;;;;;5044280;28;19908;-67
2023/11/16 00:14:32;;;;;;;;;;;17.40;64.90;;;;;;5043999;28;19913;-66
2023/11/16 00:16:58;;;;;;;;;;;17.40;64.90;;;;;;5045377;28;19908;-68
2023/11/16 00:19:24;;;;;;;;;;;17.40;64.90;;;;;;5042817;28;20475;-67
2023/11/16 00:21:50;;;;;;;;;;;17.40;65.00;;;;;;5045268;28;19908;-67
2023/11/16 00:24:16;;;;;;;;;;;17.40;65.10;;;;;;5043135;28;20037;-68
2023/11/16 00:26:41;;;;;;;;;;;17.40;65.10;;;;;;5042208;28;20435;-67
2023/11/16 00:29:07;;;;;;;;;;;17.40;65.10;;;;;;5038556;28;19974;-67
2023/11/16 00:31:32;;;;;;;;;;;17.40;65.10;;;;;;5055789;28;19975;-67
2023/11/16 00:33:58;;;;;;;;;;;17.40;65.10;;;;;;5046008;28;19913;-68
2023/11/16 00:36:24;;;;;;;;;;;17.40;65.20;;;;;;5046596;28;19952;-68
2023/11/16 00:38:52;;;;;;;;;;;17.40;65.10;;;;;;5045018;28;19912;-67
2023/11/16 00:41:20;;;;;;;;;;;17.40;65.20;;;;;;5048280;28;19928;-67
2023/11/16 00:43:46;;;;;;;;;;;17.40;65.20;;;;;;5048894;28;19913;-67
2023/11/16 00:46:16;;;;;;;;;;;17.40;65.20;;;;;;5050345;28;20342;-67
2023/11/16 00:48:45;;;;;;;;;;;17.40;65.20;;;;;;5049348;28;19925;-67
2023/11/16 00:51:14;;;;;;;;;;;17.40;65.20;;;;;;5050256;28;20362;-68
2023/11/16 00:53:42;;;;;;;;;;;17.40;65.20;;;;;;5049278;28;19912;-67
2023/11/16 00:56:09;;;;;;;;;;;17.40;65.10;;;;;;5048622;28;19909;-67
2023/11/16 00:58:35;;;;;;;;;;;17.40;65.20;;;;;;5045631;28;19916;-67
2023/11/16 01:01:00;;;;;;;;;;;17.40;65.20;;;;;;5045520;28;20003;-68
2023/11/16 01:03:26;;;;;;;;;;;17.40;65.20;;;;;;5044108;28;20422;-67
2023/11/16 01:05:52;;;;;;;;;;;17.40;65.20;;;;;;5046961;28;22099;-67
2023/11/16 01:08:21;;;;;;;;;;;17.40;65.20;;;;;;5047819;28;19943;-68
2023/11/16 01:10:50;;;;;;;;;;;17.40;65.10;;;;;;5045877;28;20475;-66
2023/11/16 01:13:23;;;;;;;;;;;17.40;65.10;;;;;;5046516;28;19917;-67
2023/11/16 01:15:50;;;;;;;;;;;17.40;65.10;;;;;;5046920;28;19913;-66
2023/11/16 01:18:16;;;;;;;;;;;17.40;65.10;;;;;;5045880;28;19951;-63
2023/11/16 01:20:42;;;;;;;;;;;17.40;65.10;;;;;;5046943;28;20125;-67
2023/11/16 01:23:16;;;;;;;;;;;17.40;65.10;;;;;;5045983;28;19912;-67
2023/11/16 01:25:51;;;;;;;;;;;17.40;65.10;;;;;;5045531;28;19913;-67
2023/11/16 01:28:17;;;;;;;;;;;17.40;65.10;;;;;;5046836;28;19919;-67
2023/11/16 01:30:42;;;;;;;;;;;17.40;65.10;;;;;;5045267;28;19912;-67
2023/11/16 01:33:08;;;;;;;;;;;17.40;65.10;;;;;;5045809;28;19912;-68
2023/11/16 01:35:34;;;;;;;;;;;17.40;65.10;;;;;;5045215;28;19916;-66
2023/11/16 01:38:00;;;;;;;;;;;17.40;65.10;;;;;;5045775;28;19916;-66
2023/11/16 01:40:27;;;;;;;;;;;17.40;65.20;;;;;;5047805;28;19913;-64
2023/11/16 01:42:54;;;;;;;;;;;17.30;65.20;;;;;;5045908;28;19916;-64
2023/11/16 01:45:28;;;;;;;;;;;17.30;65.10;;;;;;5043434;28;19912;-68
2023/11/16 01:47:54;;;;;;;;;;;17.40;65.20;;;;;;5045298;28;19924;-68
2023/11/16 01:50:20;;;;;;;;;;;17.40;65.20;;;;;;5044748;28;19966;-67
2023/11/16 01:52:46;;;;;;;;;;;17.40;65.20;;;;;;5045283;28;20366;-68
2023/11/16 01:55:12;;;;;;;;;;;17.30;65.10;;;;;;5045961;28;19938;-67
2023/11/16 01:57:37;;;;;;;;;;;17.30;65.10;;;;;;5044843;28;19909;-67
2023/11/16 02:00:04;;;;;;;;;;;17.40;65.20;;;;;;5044685;28;19916;-65
2023/11/16 02:02:30;;;;;;;;;;;17.30;65.10;;;;;;5045175;28;20428;-67
2023/11/16 02:04:56;;;;;;;;;;;17.30;65.10;;;;;;5045307;28;19913;-68
2023/11/16 02:07:21;;;;;;;;;;;17.30;65.10;;;;;;5042388;28;19916;-67
2023/11/16 02:09:49;;;;;;;;;;;17.30;65.10;;;;;;5043704;28;20057;-68
2023/11/16 02:12:14;;;;;;;;;;;17.30;65.10;;;;;;5044664;28;19924;-68
2023/11/16 02:14:40;;;;;;;;;;;17.30;65.10;;;;;;5044797;28;19916;-67
2023/11/16 02:17:06;;;;;;;;;;;17.30;65.10;;;;;;5045680;28;20350;-67
2023/11/16 02:19:31;;;;;;;;;;;17.30;65.10;;;;;;5044318;28;19962;-66
2023/11/16 02:22:03;;;;;;;;;;;17.30;65.10;;;;;;5045358;28;20011;-68
2023/11/16 02:24:28;;;;;;;;;;;17.30;65.10;;;;;;5044558;28;20441;-68
2023/11/16 02:26:54;;;;;;;;;;;17.30;65.10;;;;;;5050170;28;20032;-68
2023/11/16 02:29:19;;;;;;;;;;;17.30;65.00;;;;;;5044050;28;19972;-67
2023/11/16 02:31:45;;;;;;;;;;;17.30;65.10;;;;;;5044038;28;20367;-67
2023/11/16 02:34:10;;;;;;;;;;;17.30;65.10;;;;;;5044573;28;19994;-67
2023/11/16 02:36:36;;;;;;;;;;;17.30;65.10;;;;;;5044510;28;20585;-67
2023/11/16 02:39:01;;;;;;;;;;;17.30;65.10;;;;;;5044321;28;20340;-68
2023/11/16 02:41:29;;;;;;;;;;;17.30;65.10;;;;;;5048333;28;20305;-67
2023/11/16 02:43:54;;;;;;;;;;;17.30;65.10;;;;;;5049373;28;20411;-68
2023/11/16 02:46:20;;;;;;;;;;;17.30;65.10;;;;;;5044362;28;19912;-67
2023/11/16 02:48:45;;;;;;;;;;;17.30;65.10;;;;;;5043548;28;20042;-67
2023/11/16 02:51:12;;;;;;;;;;;17.30;65.10;;;;;;5049146;28;19991;-67
2023/11/16 02:53:38;;;;;;;;;;;17.30;65.10;;;;;;5049604;28;19916;-67
2023/11/16 02:56:03;;;;;;;;;;;17.30;65.10;;;;;;5044343;28;19919;-67
2023/11/16 02:58:29;;;;;;;;;;;17.30;65.10;;;;;;5050499;28;19915;-68
2023/11/16 03:00:54;;;;;;;;;;;17.30;65.20;;;;;;5042635;28;21802;-67
2023/11/16 03:03:20;;;;;;;;;;;17.30;65.20;;;;;;5047977;28;19909;-68
2023/11/16 03:05:46;;;;;;;;;;;17.30;65.10;;;;;;5043067;28;20529;-68
2023/11/16 03:08:11;;;;;;;;;;;17.30;65.10;;;;;;5041136;28;19913;-67
2023/11/16 03:10:37;;;;;;;;;;;17.30;65.10;;;;;;5043236;28;19928;-67
2023/11/16 03:13:03;;;;;;;;;;;17.30;65.10;;;;;;5049397;28;20627;-67
2023/11/16 03:15:28;;;;;;;;;;;17.30;65.10;;;;;;5045131;28;19913;-67
2023/11/16 03:17:56;;;;;;;;;;;17.30;65.10;;;;;;5047808;28;19909;-67
2023/11/16 03:20:23;;;;;;;;;;;17.30;65.10;;;;;;5050626;28;20341;-68
2023/11/16 03:22:49;;;;;;;;;;;17.30;65.10;;;;;;5042435;28;19912;-67
2023/11/16 03:25:14;;;;;;;;;;;17.30;65.10;;;;;;5045357;28;19970;-67
2023/11/16 03:27:42;;;;;;;;;;;17.30;65.10;;;;;;5048143;28;19923;-67
2023/11/16 03:30:07;;;;;;;;;;;17.30;65.10;;;;;;5051058;28;19913;-67
2023/11/16 03:32:33;;;;;;;;;;;17.30;65.20;;;;;;5045246;28;20302;-67
2023/11/16 03:34:59;;;;;;;;;;;17.30;65.10;;;;;;5042980;28;19917;-67
2023/11/16 03:37:24;;;;;;;;;;;17.20;65.10;;;;;;5054172;28;20130;-67
2023/11/16 03:39:50;;;;;;;;;;;17.30;65.10;;;;;;5042053;28;19912;-70
2023/11/16 03:42:15;;;;;;;;;;;17.30;65.10;;;;;;5053191;28;19927;-67
2023/11/16 03:44:41;;;;;;;;;;;17.30;65.20;;;;;;5041485;28;20429;-67
2023/11/16 03:47:06;;;;;;;;;;;17.20;65.10;;;;;;5052617;28;19909;-67
2023/11/16 03:49:32;;;;;;;;;;;17.20;65.10;;;;;;5041824;28;20397;-67
2023/11/16 03:51:57;;;;;;;;;;;17.20;65.10;;;;;;5043420;28;20382;-68
2023/11/16 03:54:23;;;;;;;;;;;17.20;65.10;;;;;;5049351;28;19958;-67
2023/11/16 03:56:53;;;;;;;;;;;17.20;65.10;;;;;;5041012;28;19951;-67
2023/11/16 03:59:24;;;;;;;;;;;17.20;65.10;;;;;;5046616;28;19912;-63
2023/11/16 04:01:50;;;;;;;;;;;17.20;65.10;;;;;;5038437;28;20333;-67
2023/11/16 04:04:17;;;;;;;;;;;17.20;65.10;;;;;;5046626;28;19912;-67
2023/11/16 04:06:42;;;;;;;;;;;17.20;65.10;;;;;;5039808;28;20007;-67
2023/11/16 04:09:09;;;;;;;;;;;17.20;65.10;;;;;;5046496;28;20040;-67
2023/11/16 04:11:40;;;;;;;;;;;17.20;65.10;;;;;;5046947;28;19913;-68
2023/11/16 04:14:07;;;;;;;;;;;17.20;65.00;;;;;;5044344;28;19909;-67
2023/11/16 04:16:33;;;;;;;;;;;17.20;65.10;;;;;;5044547;28;20396;-67
2023/11/16 04:18:58;;;;;;;;;;;17.20;65.10;;;;;;5051020;28;20039;-68
2023/11/16 04:21:28;;;;;;;;;;;17.20;65.10;;;;;;5052039;28;19912;-67
2023/11/16 04:23:57;;;;;;;;;;;17.20;65.10;;;;;;5048172;28;19913;-66
2023/11/16 04:26:23;;;;;;;;;;;17.20;65.10;;;;;;5054125;28;19924;-67
2023/11/16 04:28:49;;;;;;;;;;;17.20;65.20;;;;;;5046610;28;20015;-68
2023/11/16 04:31:15;;;;;;;;;;;17.20;65.20;;;;;;5048673;28;20386;-67
2023/11/16 04:33:41;;;;;;;;;;;17.20;65.30;;;;;;5041303;28;19909;-67
2023/11/16 04:36:08;;;;;;;;;;;17.20;65.30;;;;;;5047534;28;20387;-67
2023/11/16 04:38:34;;;;;;;;;;;17.20;65.20;;;;;;5047601;28;19909;-67
2023/11/16 04:41:00;;;;;;;;;;;17.20;65.20;;;;;;5041356;28;19967;-68
2023/11/16 04:43:26;;;;;;;;;;;17.20;65.10;;;;;;5051141;28;19943;-67
2023/11/16 04:45:52;;;;;;;;;;;17.20;65.20;;;;;;5042207;28;20422;-68
2023/11/16 04:48:19;;;;;;;;;;;17.20;65.20;;;;;;5049761;28;20246;-67
2023/11/16 04:50:44;;;;;;;;;;;17.20;65.20;;;;;;5049267;28;20429;-67
2023/11/16 04:53:10;;;;;;;;;;;17.20;65.20;;;;;;5049003;28;19909;-67
2023/11/16 04:55:36;;;;;;;;;;;17.20;65.30;;;;;;5044879;28;20362;-67
2023/11/16 04:58:02;;;;;;;;;;;17.20;65.20;;;;;;5042013;28;19999;-67
2023/11/16 05:00:27;;;;;;;;;;;17.20;65.20;;;;;;5045292;28;19999;-67
2023/11/16 05:02:53;;;;;;;;;;;17.20;65.30;;;;;;5041224;28;20006;-68
2023/11/16 05:05:18;;;;;;;;;;;17.20;65.30;;;;;;5042766;28;20333;-67
2023/11/16 05:07:45;;;;;;;;;;;17.20;65.30;;;;;;5039079;28;20329;-67
2023/11/16 05:10:11;;;;;;;;;;;17.20;65.20;;;;;;5046237;28;19909;-67
2023/11/16 05:12:39;;;;;;;;;;;17.20;65.20;;;;;;5042575;28;20398;-67
2023/11/16 05:15:06;;;;;;;;;;;17.20;65.20;;;;;;5050152;28;19938;-67
2023/11/16 05:17:33;;;;;;;;;;;17.20;65.20;;;;;;5045132;28;19962;-68
2023/11/16 05:19:59;;;;;;;;;;;17.20;65.20;;;;;;5047566;28;20477;-67
2023/11/16 05:22:24;;;;;;;;;;;17.20;65.20;;;;;;5044648;28;19970;-66
2023/11/16 05:24:50;;;;;;;;;;;17.20;65.20;;;;;;5043031;28;20021;-66
2023/11/16 05:27:15;;;;;;;;;;;17.20;65.20;;;;;;5046309;28;20292;-66
2023/11/16 05:29:40;;;;;;;;;;;17.20;65.20;;;;;;5053262;28;20573;-66
2023/11/16 05:32:06;;;;;;;;;;;17.20;65.20;;;;;;5050157;28;20397;-67
2023/11/16 05:34:32;;;;;;;;;;;17.20;65.20;;;;;;5050279;28;20458;-67
2023/11/16 05:36:57;;;;;;;;;;;17.20;65.20;;;;;;5049720;28;19917;-66
2023/11/16 05:39:23;;;;;;;;;;;17.20;65.20;;;;;;5046751;28;19908;-67
2023/11/16 05:41:49;;;;;;;;;;;17.20;65.20;;;;;;5047110;28;19923;-66
2023/11/16 05:44:15;;;;;;;;;;;17.20;65.20;;;;;;5052666;28;20291;-68
2023/11/16 05:46:41;;;;;;;;;;;17.20;65.10;;;;;;5045734;28;19919;-68
2023/11/16 05:49:09;;;;;;;;;;;17.20;65.10;;;;;;5050222;28;19913;-67
2023/11/16 05:51:36;;;;;;;;;;;17.20;65.10;;;;;;5046867;28;19912;-68
2023/11/16 05:54:02;;;;;;;;;;;17.20;65.10;;;;;;5044934;28;19909;-68
2023/11/16 05:56:28;;;;;;;;;;;17.20;65.20;;;;;;5045817;28;19913;-68
2023/11/16 05:58:53;;;;;;;;;;;17.20;65.10;;;;;;5044533;28;20007;-68
2023/11/16 06:01:19;;;;;;;;;;;17.10;65.10;;;;;;5049271;28;19916;-68
2023/11/16 06:03:44;;;;;;;;;;;17.10;65.10;;;;;;5044027;28;19966;-67
2023/11/16 06:06:09;;;;;;;;;;;17.20;65.20;;;;;;5044429;28;20156;-69
2023/11/16 06:08:37;;;;;;;;;;;17.10;65.10;;;;;;5045312;28;19917;-68
2023/11/16 06:11:02;;;;;;;;;;;17.10;65.20;;;;;;5045270;28;20357;-67
2023/11/16 06:13:28;;;;;;;;;;;17.10;65.10;;;;;;5044303;28;19909;-66
2023/11/16 06:15:54;;;;;;;;;;;17.20;65.20;;;;;;5047987;28;19967;-68
2023/11/16 06:18:19;;;;;;;;;;;17.10;65.70;;;;;;5055417;28;19912;-66
2023/11/16 06:20:45;;;;;;;;;;;17.10;65.10;;;;;;5047641;28;19908;-65
2023/11/16 06:23:11;;;;;;;;;;;17.10;65.10;;;;;;5044134;28;19916;-66
2023/11/16 06:25:37;;;;;;;;;;;17.10;65.10;;;;;;5044147;28;19916;-65
2023/11/16 06:28:03;;;;;;;;;;;17.10;65.10;;;;;;5044599;28;19913;-67
2023/11/16 06:30:29;;;;;;;;;;;17.10;65.10;;;;;;5048807;28;19916;-67
2023/11/16 06:32:54;;;;;;;;;;;17.10;65.10;;;;;;5051856;28;19912;-65
2023/11/16 06:35:20;;;;;;;;;;;17.10;65.10;;;;;;5052972;28;19912;-68
2023/11/16 06:37:46;;;;;;;;;;;17.10;65.10;;;;;;5044790;28;19944;-68
2023/11/16 06:40:12;;;;;;;;;;;17.10;65.10;;;;;;5052338;28;19916;-69
2023/11/16 06:42:39;;;;;;;;;;;17.10;65.10;;;;;;5049756;28;20323;-68
2023/11/16 06:45:05;;;;;;;;;;;17.10;65.00;;;;;;5051334;28;19909;-66
2023/11/16 06:47:32;;;;;;;;;;;17.10;65.10;;;;;;5051543;28;19912;-67
2023/11/16 06:49:58;;;;;;;;;;;17.10;65.10;;;;;;5046391;28;20397;-68
2023/11/16 06:52:26;;;;;;;;;;;17.10;65.10;;;;;;5052053;28;20026;-67
2023/11/16 06:54:52;;;;;;;;;;;17.10;65.10;;;;;;5046867;28;20339;-66
2023/11/16 06:57:17;;;;;;;;;;;17.10;65.10;;;;;;5046693;28;19940;-68
2023/11/16 06:59:44;;;;;;;;;;;17.10;65.10;;;;;;5049174;28;20003;-66
2023/11/16 07:02:10;;;;;;;;;;;17.10;65.10;;;;;;5046313;28;19915;-69
2023/11/16 07:04:36;;;;;;;;;;;17.10;65.00;;;;;;5049804;28;20108;-67
2023/11/16 07:07:02;;;;;;;;;;;17.10;65.10;;;;;;5049492;28;20321;-66
2023/11/16 07:09:27;;;;;;;;;;;17.10;65.00;;;;;;5047555;28;19952;-67
2023/11/16 07:11:53;;;;;;;;;;;17.10;65.00;;;;;;5046508;28;19943;-68
2023/11/16 07:14:19;;;;;;;;;;;17.10;65.00;;;;;;5045011;28;19913;-64
2023/11/16 07:16:45;;;;;;;;;;;17.10;65.00;;;;;;5049033;28;19913;-66
2023/11/16 07:19:12;;;;;;;;;;;17.10;65.00;;;;;;5045492;28;19962;-66
2023/11/16 07:21:38;;;;;;;;;;;17.10;65.10;;;;;;5046900;28;19917;-66
2023/11/16 07:24:03;;;;;;;;;;;17.10;65.00;;;;;;5048727;28;20004;-66
2023/11/16 07:26:29;;;;;;;;;;;17.10;65.10;;;;;;5051945;28;19908;-67
2023/11/16 07:28:55;;;;;;;;;;;17.20;65.10;;;;;;5046798;28;19916;-67
2023/11/16 07:31:21;;;;;;;;;;;17.30;64.80;;;;;;5049137;28;19913;-67
2023/11/16 07:33:52;;;;;;;;;;;17.70;64.10;;;;;;5049828;28;19913;-64
2023/11/16 07:36:25;;;;;;;;;;;18.10;62.80;;;;;;5051377;28;19916;-66
2023/11/16 07:38:52;;;;;;;;;;;18.70;61.50;;;;;;5045944;28;19916;-67
2023/11/16 07:41:17;;;;;;;;;;;19.20;60.30;;;;;;5057472;28;20353;-69
2023/11/16 07:43:43;;;;;;;;;;;19.70;59.00;;;;;;5042712;28;19916;-67
2023/11/16 07:46:09;;;;;;;;;;;20.20;57.70;;;;;;5044903;28;19990;-68
2023/11/16 07:48:34;;;;;;;;;;;20.70;56.60;;;;;;5044773;28;19969;-67
2023/11/16 07:51:00;;;;;;;;;;;21.10;55.90;;;;;;5046608;28;20010;-66
2023/11/16 07:53:27;;;;;;;;;;;21.40;55.00;;;;;;5048560;28;19908;-67
2023/11/16 07:55:53;;;;;;;;;;;21.70;54.70;;;;;;5043794;28;19940;-67
2023/11/16 07:58:19;;;;;;;;;;;21.70;54.40;;;;;;5046935;28;19916;-66
2023/11/16 08:00:55;;;;;;;;;;;21.60;54.60;;;;;;5042298;28;19917;-66
2023/11/16 08:06:05;;;;;;;;;;;21.30;55.30;;;;;;5036886;28;19978;-66
2023/11/16 08:08:31;;;;;;;;;;;21.10;56.10;;;;;;5039648;28;20375;-66
2023/11/16 08:10:57;;;;;;;;;;;21.00;56.20;;;;;;5041528;28;19920;-66
2023/11/16 08:13:22;;;;;;;;;;;20.80;56.70;;;;;;5045239;28;19912;-67
2023/11/16 08:15:56;;;;;;;;;;;20.60;57.10;;;;;;5046845;28;19931;-67
2023/11/16 08:18:21;;;;;;;;;;;20.50;57.50;;;;;;5045488;28;19958;-67
2023/11/16 08:20:47;;;;;;;;;;;20.30;57.80;;;;;;5042954;28;19913;-67
2023/11/16 08:23:13;;;;;;;;;;;20.20;58.20;;;;;;5044960;28;20057;-67
2023/11/16 08:25:39;;;;;;;;;;;20.10;58.60;;;;;;5046474;28;19916;-67
2023/11/16 08:28:08;;;;;;;;;;;19.90;58.90;;;;;;5047022;28;20424;-66
2023/11/16 08:30:33;;;;;;;;;;;19.80;59.30;;;;;;5046244;28;19920;-67
2023/11/16 08:33:00;;;;;;;;;;;19.70;59.60;;;;;;5046499;28;19913;-67
2023/11/16 08:35:26;;;;;;;;;;;19.60;59.90;;;;;;5044591;28;20374;-67
2023/11/16 08:37:54;;;;;;;;;;;19.50;60.30;;;;;;5046453;28;19944;-67
2023/11/16 08:40:20;;;;;;;;;;;19.40;60.50;;;;;;5049029;28;19999;-67
2023/11/16 08:42:46;;;;;;;;;;;19.30;60.70;;;;;;5044959;28;20402;-67
2023/11/16 08:45:20;;;;;;;;;;;19.20;60.90;;;;;;5046923;28;19909;-66
2023/11/16 08:47:47;;;;;;;;;;;19.20;61.10;;;;;;5043340;28;19920;-67
2023/11/16 08:50:12;;;;;;;;;;;19.10;61.10;;;;;;5041783;28;19920;-67
2023/11/16 08:52:41;;;;;;;;;;;19.00;61.30;;;;;;5042027;28;19917;-67
2023/11/16 08:55:07;;;;;;;;;;;19.00;61.50;;;;;;5042522;28;20385;-64
2023/11/16 08:57:33;;;;;;;;;;;18.90;61.60;;;;;;5033303;28;20106;-68
2023/11/16 09:00:27;;;;;;;;;;;18.90;61.80;;;;;;5045684;28;19999;-67
2023/11/16 09:02:47;;;;;;;;;;;18.80;61.90;;;;;;5036675;28;19916;-68
2023/11/16 09:05:12;;;;;;;;;;;18.70;62.00;;;;;;5051860;28;19908;-68
2023/11/16 09:07:37;;;;;;;;;;;18.70;62.20;;;;;;5051063;28;20665;-68
2023/11/16 09:10:05;;;;;;;;;;;18.60;62.30;;;;;;5052177;28;19908;-68
2023/11/16 09:12:31;;;;;;;;;;;18.60;62.40;;;;;;5049616;28;20361;-68
2023/11/16 09:14:56;;;;;;;;;;;18.60;63.20;;;;;;5050543;28;19938;-68
2023/11/16 09:17:23;;;;;;;;;;;18.50;62.70;;;;;;5048831;28;19912;-68
2023/11/16 09:19:50;;;;;;;;;;;18.40;62.70;;;;;;5048858;28;20282;-67
2023/11/16 09:22:17;;;;;;;;;;;18.40;62.80;;;;;;5049300;28;19919;-67
2023/11/16 09:24:44;;;;;;;;;;;18.40;62.90;;;;;;5050427;28;19915;-67
2023/11/16 09:27:10;;;;;;;;;;;18.40;63.00;;;;;;5049495;28;19976;-67
2023/11/16 09:29:38;;;;;;;;;;;18.30;63.00;;;;;;5049566;28;19916;-66
2023/11/16 09:32:05;;;;;;;;;;;18.30;63.00;;;;;;5049003;28;20364;-68
2023/11/16 09:34:30;;;;;;;;;;;18.20;63.10;;;;;;5049156;28;19908;-68
2023/11/16 09:36:59;;;;;;;;;;;18.20;63.10;;;;;;5050299;28;19971;-69
2023/11/16 09:39:25;;;;;;;;;;;18.20;63.30;;;;;;5048028;28;19912;-68
2023/11/16 09:41:51;;;;;;;;;;;18.10;63.30;;;;;;5048394;28;19916;-64
2023/11/16 09:44:17;;;;;;;;;;;18.20;63.40;;;;;;5048015;28;19913;-68
2023/11/16 09:46:47;;;;;;;;;;;18.10;63.40;;;;;;5049163;28;19924;-67
2023/11/16 09:49:16;;;;;;;;;;;18.10;63.50;;;;;;5041244;28;20280;-66
2023/11/16 09:51:43;;;;;;;;;;;18.10;63.50;;;;;;5048171;28;20364;-68
2023/11/16 09:54:09;;;;;;;;;;;18.10;63.50;;;;;;5043610;28;20493;-69
2023/11/16 09:56:40;;;;;;;;;;;18.10;63.40;;;;;;5049210;28;19961;-67
2023/11/16 09:59:13;;;;;;;;;;;18.10;63.50;;;;;;5036849;28;20480;-67
2023/11/16 10:01:46;;;;;;;;;;;18.10;63.40;;;;;;5038555;28;19981;-68
2023/11/16 10:04:14;;;;;;;;;;;18.10;63.50;;;;;;5047908;28;19931;-68
2023/11/16 10:06:46;;;;;;;;;;;18.00;63.40;;;;;;5046465;28;20218;-68
2023/11/16 10:09:14;;;;;;;;;;;18.10;63.50;;;;;;5047653;28;19921;-68
2023/11/16 10:11:40;;;;;;;;;;;18.00;63.50;;;;;;5046791;28;19958;-68
2023/11/16 10:14:07;;;;;;;;;;;18.00;63.60;;;;;;5047943;28;19916;-66
2023/11/16 10:16:32;;;;;;;;;;;18.00;63.60;;;;;;5047240;28;19915;-66
2023/11/16 10:19:08;;;;;;;;;;;18.00;63.70;;;;;;5046998;28;20305;-63
2023/11/16 10:21:34;;;;;;;;;;;17.90;63.60;;;;;;5050960;28;19943;-63
2023/11/16 10:24:08;;;;;;;;;;;17.90;63.70;;;;;;5051003;28;19908;-67
2023/11/16 10:26:34;;;;;;;;;;;17.90;63.80;;;;;;5050615;28;19916;-67
2023/11/16 10:29:00;;;;;;;;;;;17.90;63.80;;;;;;5049000;28;19912;-67
2023/11/16 10:31:29;;;;;;;;;;;17.90;63.80;;;;;;5050021;28;20074;-67
2023/11/16 10:33:55;;;;;;;;;;;17.90;63.80;;;;;;5052349;28;20392;-68
2023/11/16 10:36:23;;;;;;;;;;;17.90;63.80;;;;;;5047648;28;19909;-67
2023/11/16 10:38:49;;;;;;;;;;;17.90;63.80;;;;;;5054825;28;19913;-66
2023/11/16 10:41:14;;;;;;;;;;;17.90;63.80;;;;;;5047050;28;19927;-67
2023/11/16 10:43:40;;;;;;;;;;;17.80;63.80;;;;;;5047940;28;19915;-67
2023/11/16 10:46:07;;;;;;;;;;;17.90;63.90;;;;;;5047599;28;19909;-66
2023/11/16 10:48:32;;;;;;;;;;;17.90;63.90;;;;;;5046075;28;19913;-67
2023/11/16 10:51:00;;;;;;;;;;;17.80;63.80;;;;;;5047749;28;19943;-66
2023/11/16 10:53:29;;;;;;;;;;;17.80;63.80;;;;;;5047687;28;19956;-66
2023/11/16 10:55:58;;;;;;;;;;;17.80;63.80;;;;;;5053492;28;20017;-62
2023/11/16 10:58:29;;;;;;;;;;;17.80;63.90;;;;;;5052962;28;19909;-66
2023/11/16 11:00:57;;;;;;;;;;;17.80;63.90;;;;;;5051131;28;19908;-66
2023/11/16 11:03:23;;;;;;;;;;;17.80;63.90;;;;;;5049909;28;19920;-66
2023/11/16 11:05:52;;;;;;;;;;;17.80;64.60;;;;;;5049507;28;20182;-65
2023/11/16 11:08:19;;;;;;;;;;;17.80;63.90;;;;;;5049370;28;19944;-68
2023/11/16 11:10:46;;;;;;;;;;;17.80;63.90;;;;;;5045118;28;19913;-67
2023/11/16 11:13:13;;;;;;;;;;;17.70;63.90;;;;;;5049155;28;20371;-67
2023/11/16 11:15:39;;;;;;;;;;;17.70;63.90;;;;;;5046062;28;20055;-69
2023/11/16 11:18:05;;;;;;;;;;;17.80;64.00;;;;;;5050202;28;20015;-67
2023/11/16 11:20:32;;;;;;;;;;;17.70;63.90;;;;;;5041368;28;19992;-68
2023/11/16 11:23:06;;;;;;;;;;;17.70;63.90;;;;;;5048541;28;19908;-68
2023/11/16 11:25:32;;;;;;;;;;;17.70;63.90;;;;;;5046675;28;19916;-67
2023/11/16 11:27:57;;;;;;;;;;;17.70;63.90;;;;;;5049675;28;19919;-68
2023/11/16 11:30:23;;;;;;;;;;;17.70;63.90;;;;;;5049087;28;19909;-68
2023/11/16 11:32:51;;;;;;;;;;;17.70;64.00;;;;;;5048577;28;20317;-63
2023/11/16 11:35:17;;;;;;;;;;;17.70;64.00;;;;;;5037820;28;19912;-68
2023/11/16 11:37:43;;;;;;;;;;;17.70;64.00;;;;;;5066822;28;19916;-67
2023/11/16 11:40:08;;;;;;;;;;;17.70;64.00;;;;;;5046229;28;19913;-68
2023/11/16 11:42:38;;;;;;;;;;;17.70;64.00;;;;;;5037044;28;20023;-67
2023/11/16 11:45:06;;;;;;;;;;;17.70;64.00;;;;;;5049633;28;20464;-67
2023/11/16 11:47:32;;;;;;;;;;;17.70;64.10;;;;;;5047000;28;19973;-67
2023/11/16 11:49:57;;;;;;;;;;;17.70;64.10;;;;;;5047994;28;19999;-68
2023/11/16 11:52:24;;;;;;;;;;;17.70;64.00;;;;;;5049124;28;20010;-67
2023/11/16 11:54:50;;;;;;;;;;;17.60;64.00;;;;;;5045068;28;19999;-68
2023/11/16 11:57:16;;;;;;;;;;;17.60;64.00;;;;;;5048816;28;20020;-67
2023/11/16 11:59:43;;;;;;;;;;;17.70;64.10;;;;;;5049502;28;20350;-68
2023/11/16 12:02:09;;;;;;;;;;;17.60;64.00;;;;;;5046359;28;19913;-67
2023/11/16 12:04:35;;;;;;;;;;;17.60;64.10;;;;;;5049185;28;19937;-67
2023/11/16 12:07:07;;;;;;;;;;;17.60;64.10;;;;;;5052822;28;20402;-67
2023/11/16 12:09:34;;;;;;;;;;;17.60;64.10;;;;;;5044102;28;19948;-67
2023/11/16 12:12:03;;;;;;;;;;;17.60;64.10;;;;;;5050863;28;19944;-67
2023/11/16 12:14:33;;;;;;;;;;;17.60;64.10;;;;;;5045214;28;19939;-67
2023/11/16 12:16:58;;;;;;;;;;;17.60;64.10;;;;;;5043241;28;19909;-67
2023/11/16 12:19:25;;;;;;;;;;;17.60;64.20;;;;;;5048030;28;19999;-67
2023/11/16 12:21:50;;;;;;;;;;;17.60;64.20;;;;;;5053214;28;20537;-67
2023/11/16 12:24:16;;;;;;;;;;;17.60;64.20;;;;;;5048090;28;20263;-67
2023/11/16 12:26:42;;;;;;;;;;;17.50;64.10;;;;;;5045856;28;19916;-67
2023/11/16 12:29:15;;;;;;;;;;;17.50;64.10;;;;;;5049587;28;20002;-67
2023/11/16 12:31:40;;;;;;;;;;;17.50;64.20;;;;;;5038975;28;19916;-68
2023/11/16 12:34:06;;;;;;;;;;;17.50;64.10;;;;;;5046044;28;19908;-67
2023/11/16 12:36:34;;;;;;;;;;;17.50;64.20;;;;;;5048717;28;19980;-67
2023/11/16 12:38:59;;;;;;;;;;;17.50;64.20;;;;;;5044597;28;19909;-69
2023/11/16 12:41:24;;;;;;;;;;;17.50;64.20;;;;;;5045808;28;19920;-67
2023/11/16 12:43:50;;;;;;;;;;;17.50;64.20;;;;;;5046625;28;19924;-64
2023/11/16 12:46:17;;;;;;;;;;;17.50;64.20;;;;;;5048363;28;19908;-67
2023/11/16 12:48:42;;;;;;;;;;;17.50;64.20;;;;;;5049264;28;19944;-67
2023/11/16 12:51:08;;;;;;;;;;;17.50;64.20;;;;;;5045615;28;19994;-67
2023/11/16 12:53:39;;;;;;;;;;;17.50;64.20;;;;;;5046627;28;19967;-67
2023/11/16 12:56:06;;;;;;;;;;;17.50;64.20;;;;;;5047435;28;19913;-68
2023/11/16 12:58:33;;;;;;;;;;;17.50;64.20;;;;;;5046614;28;19924;-65
2023/11/16 13:00:58;;;;;;;;;;;17.50;64.20;;;;;;5044247;28;20393;-68
2023/11/16 13:03:28;;;;;;;;;;;17.50;64.20;;;;;;5047594;28;19908;-67
2023/11/16 13:05:54;;;;;;;;;;;17.50;64.20;;;;;;5046295;28;20383;-68
2023/11/16 13:08:19;;;;;;;;;;;17.50;64.10;;;;;;5048022;28;19955;-68
2023/11/16 13:10:47;;;;;;;;;;;17.50;64.20;;;;;;5048305;28;20318;-67
2023/11/16 13:13:12;;;;;;;;;;;17.50;64.10;;;;;;5052915;28;19909;-68
2023/11/16 13:15:38;;;;;;;;;;;17.50;64.10;;;;;;5053229;28;19909;-67
2023/11/16 13:18:04;;;;;;;;;;;17.50;64.10;;;;;;5051963;28;20260;-67
2023/11/16 13:20:29;;;;;;;;;;;17.40;64.10;;;;;;5050610;28;19935;-67
2023/11/16 13:22:55;;;;;;;;;;;17.50;64.10;;;;;;5048569;28;19956;-67
2023/11/16 13:25:21;;;;;;;;;;;17.50;64.20;;;;;;5044980;28;19909;-68
2023/11/16 13:27:46;;;;;;;;;;;17.50;64.20;;;;;;5044942;28;20030;-68
2023/11/16 13:30:12;;;;;;;;;;;17.50;64.20;;;;;;5051640;28;20004;-68
2023/11/16 13:32:41;;;;;;;;;;;17.40;64.20;;;;;;5043688;28;19912;-67
2023/11/16 13:35:07;;;;;;;;;;;17.40;64.30;;;;;;5048373;28;19908;-67
2023/11/16 13:37:36;;;;;;;;;;;17.40;64.30;;;;;;5046035;28;19960;-67
2023/11/16 13:40:10;;;;;;;;;;;17.40;64.30;;;;;;5045469;28;19983;-67
2023/11/16 13:42:38;;;;;;;;;;;17.40;64.30;;;;;;5044064;28;19916;-66
2023/11/16 13:45:04;;;;;;;;;;;17.40;64.30;;;;;;5045851;28;19958;-68
2023/11/16 13:47:31;;;;;;;;;;;17.40;64.30;;;;;;5049292;28;19995;-67
2023/11/16 13:49:56;;;;;;;;;;;17.40;64.30;;;;;;5048926;28;20429;-67
2023/11/16 13:52:22;;;;;;;;;;;17.40;64.30;;;;;;5045555;28;19912;-66
2023/11/16 13:54:47;;;;;;;;;;;17.40;64.40;;;;;;5050391;28;20429;-67
2023/11/16 13:57:13;;;;;;;;;;;17.40;64.40;;;;;;5050875;28;19909;-67
2023/11/16 13:59:38;;;;;;;;;;;17.40;64.40;;;;;;5049919;28;19916;-67
2023/11/16 14:02:05;;;;;;;;;;;17.40;64.40;;;;;;5047735;28;19969;-66
2023/11/16 14:04:31;;;;;;;;;;;17.40;64.40;;;;;;5050364;28;19932;-67
2023/11/16 14:06:56;;;;;;;;;;;17.40;64.40;;;;;;5052425;28;19960;-67
2023/11/16 14:09:22;;;;;;;;;;;17.40;64.50;;;;;;5049915;28;19920;-67
2023/11/16 14:11:47;;;;;;;;;;;17.40;64.50;;;;;;5050060;28;20212;-68
2023/11/16 14:14:13;;;;;;;;;;;17.30;64.50;;;;;;5050932;28;20391;-67
2023/11/16 14:16:39;;;;;;;;;;;17.40;64.60;;;;;;5049748;28;20266;-63